Time;durP1;ratioP1;P1;durP2;ratioP2;P2;SDS_P1;SDS_P2;PMS_P1;PMS_P2;Temp;Humidity;BMP_temperature;BMP_pressure;BME280_temperature;BME280_humidity;BME280_pressure;Samples;Min_cycle;Max_cycle;Signal;HPM_P1;HPM_P2
2024/01/05 00:01:07;;;;;;;9.80;5.57;;;5.60;79.40;;;;;;4997252;28;20027;-63
2024/01/05 00:03:33;;;;;;;10.52;6.03;;;5.60;79.50;;;;;;4995942;28;20387;-64
2024/01/05 00:05:59;;;;;;;11.95;6.13;;;5.50;79.60;;;;;;4996761;28;20052;-64
2024/01/05 00:08:24;;;;;;;11.45;5.53;;;5.50;79.70;;;;;;5010682;28;20544;-63
2024/01/05 00:10:50;;;;;;;9.70;5.13;;;5.50;79.90;;;;;;5005839;28;20030;-64
2024/01/05 00:13:15;;;;;;;9.52;5.25;;;5.50;79.90;;;;;;5002012;28;20030;-63
2024/01/05 00:15:41;;;;;;;13.45;5.65;;;5.40;80.00;;;;;;5003728;28;20018;-63
2024/01/05 00:18:06;;;;;;;8.98;5.03;;;5.40;79.90;;;;;;5000218;28;20038;-64
2024/01/05 00:20:32;;;;;;;8.52;5.30;;;5.40;79.80;;;;;;4999632;28;20026;-64
2024/01/05 00:22:58;;;;;;;11.35;5.80;;;5.40;79.70;;;;;;5004556;28;20571;-64
2024/01/05 00:25:23;;;;;;;14.23;6.20;;;5.40;79.60;;;;;;5005830;28;20069;-64
2024/01/05 00:27:55;;;;;;;12.52;5.65;;;5.30;79.60;;;;;;5002077;28;20069;-63
2024/01/05 00:30:20;;;;;;;10.07;5.05;;;5.30;79.60;;;;;;5000622;28;20042;-64
2024/01/05 00:32:46;;;;;;;10.10;5.53;;;5.20;79.60;;;;;;5002757;28;20034;-63
2024/01/05 00:35:12;;;;;;;11.18;5.68;;;5.20;79.80;;;;;;5002230;28;20037;-64
2024/01/05 00:37:38;;;;;;;15.50;7.32;;;5.20;79.90;;;;;;5008370;28;20117;-63
2024/01/05 00:40:04;;;;;;;14.20;6.85;;;5.10;79.90;;;;;;5005994;28;20070;-64
2024/01/05 00:42:29;;;;;;;13.43;6.32;;;5.00;79.90;;;;;;4999365;28;20046;-64
2024/01/05 00:44:55;;;;;;;10.57;5.20;;;5.00;80.30;;;;;;5000656;28;20410;-63
2024/01/05 00:47:21;;;;;;;8.90;3.75;;;4.90;80.60;;;;;;4999995;28;20088;-63
2024/01/05 00:49:46;;;;;;;7.15;3.58;;;4.90;80.90;;;;;;4995965;28;20038;-63
2024/01/05 00:52:12;;;;;;;7.43;3.83;;;4.80;81.30;;;;;;5005844;28;20034;-63
2024/01/05 00:54:38;;;;;;;7.10;3.67;;;4.80;81.50;;;;;;5003002;28;20034;-63
2024/01/05 00:57:04;;;;;;;6.40;3.55;;;4.80;81.40;;;;;;5000872;28;20404;-63
2024/01/05 00:59:30;;;;;;;7.22;3.40;;;4.70;81.40;;;;;;5008279;28;20417;-64
2024/01/05 01:01:56;;;;;;;8.50;3.58;;;4.80;81.60;;;;;;5001797;28;20030;-64
2024/01/05 01:04:22;;;;;;;6.28;3.45;;;4.70;81.50;;;;;;5005975;28;20046;-62
2024/01/05 01:06:48;;;;;;;6.18;3.58;;;4.80;81.50;;;;;;5007843;28;20040;-63
2024/01/05 01:09:14;;;;;;;7.95;4.35;;;4.80;81.40;;;;;;5003971;28;20033;-63
2024/01/05 01:11:39;;;;;;;7.05;3.70;;;4.80;81.40;;;;;;5006484;28;20043;-63
2024/01/05 01:14:05;;;;;;;7.10;3.40;;;4.70;81.40;;;;;;5008437;28;20379;-63
2024/01/05 01:16:31;;;;;;;6.95;3.45;;;4.70;81.60;;;;;;5008438;28;20553;-63
2024/01/05 01:18:57;;;;;;;8.15;3.40;;;4.60;81.60;;;;;;5006454;28;20029;-63
2024/01/05 01:21:23;;;;;;;7.57;3.15;;;4.60;81.80;;;;;;5005334;28;20041;-63
2024/01/05 01:23:49;;;;;;;6.57;3.15;;;4.50;82.00;;;;;;5005580;28;20137;-62
2024/01/05 01:26:16;;;;;;;9.15;3.83;;;4.50;82.30;;;;;;5005073;28;20038;-61
2024/01/05 01:28:41;;;;;;;10.30;3.78;;;4.50;82.90;;;;;;5010208;28;20050;-64
2024/01/05 01:31:07;;;;;;;8.85;4.03;;;4.50;83.40;;;;;;5008260;28;20068;-63
2024/01/05 01:33:32;;;;;;;5.18;2.85;;;4.50;83.90;;;;;;5006595;28;20126;-63
2024/01/05 01:35:58;;;;;;;7.63;3.25;;;4.40;84.00;;;;;;5009351;28;20033;-63
2024/01/05 01:38:23;;;;;;;7.03;3.55;;;4.40;84.30;;;;;;5003238;28;20041;-64
2024/01/05 01:40:49;;;;;;;9.63;3.40;;;4.40;84.60;;;;;;5009893;28;20033;-64
2024/01/05 01:43:24;;;;;;;5.53;3.00;;;4.40;84.60;;;;;;5009087;28;20112;-64
2024/01/05 01:45:50;;;;;;;;;;;4.40;84.90;;;;;;5005524;28;20125;-64
2024/01/05 01:48:18;;;;;;;5.68;2.85;;;4.40;86.00;;;;;;5004620;28;19917;-63
2024/01/05 01:50:45;;;;;;;5.82;2.83;;;4.30;84.50;;;;;;5003284;28;20034;-63
2024/01/05 01:53:13;;;;;;;3.92;2.55;;;4.30;84.60;;;;;;5005975;28;20034;-63
2024/01/05 01:55:40;;;;;;;6.82;2.85;;;4.30;84.90;;;;;;5005464;28;20541;-62
2024/01/05 01:58:05;;;;;;;7.47;3.10;;;4.30;85.10;;;;;;5004773;28;20034;-63
2024/01/05 02:00:32;;;;;;;5.28;3.30;;;4.30;85.30;;;;;;5006265;28;20026;-64
2024/01/05 02:02:59;;;;;;;8.07;3.88;;;4.30;85.50;;;;;;5003285;28;20091;-63
2024/01/05 02:05:25;;;;;;;7.95;3.65;;;4.40;85.60;;;;;;5007848;28;20038;-63
2024/01/05 02:07:51;;;;;;;9.07;3.72;;;4.40;85.90;;;;;;5008383;28;20042;-63
2024/01/05 02:10:17;;;;;;;6.68;3.45;;;4.40;86.00;;;;;;5004946;28;20520;-64
2024/01/05 02:12:43;;;;;;;8.43;3.90;;;4.40;85.90;;;;;;5008484;28;20453;-64
2024/01/05 02:15:09;;;;;;;5.90;3.33;;;4.40;85.90;;;;;;5004948;28;20272;-63
2024/01/05 02:17:34;;;;;;;7.95;3.47;;;4.40;86.00;;;;;;5010026;28;20077;-63
2024/01/05 02:20:01;;;;;;;8.15;3.47;;;4.50;86.10;;;;;;5007584;28;20030;-63
2024/01/05 02:22:29;;;;;;;6.55;3.17;;;4.50;86.00;;;;;;5007612;28;20539;-64
2024/01/05 02:24:55;;;;;;;6.55;3.22;;;4.60;86.00;;;;;;5007660;28;20487;-63
2024/01/05 02:27:21;;;;;;;7.68;3.50;;;4.70;85.80;;;;;;5003601;28;20034;-64
2024/01/05 02:29:46;;;;;;;6.05;3.40;;;4.70;85.80;;;;;;5001621;28;20088;-63
2024/01/05 02:32:12;;;;;;;5.75;3.63;;;4.70;85.50;;;;;;5006330;28;20065;-64
2024/01/05 02:34:37;;;;;;;5.55;3.47;;;4.80;85.40;;;;;;5007044;28;20041;-63
2024/01/05 02:37:03;;;;;;;6.25;3.58;;;4.70;85.30;;;;;;5000862;28;20141;-63
2024/01/05 02:39:29;;;;;;;7.03;3.60;;;4.80;85.30;;;;;;5006161;28;20046;-64
2024/01/05 02:41:54;;;;;;;5.20;2.92;;;4.80;85.10;;;;;;5004759;28;20041;-63
2024/01/05 02:44:20;;;;;;;5.07;3.55;;;4.90;85.10;;;;;;5009272;28;20525;-63
2024/01/05 02:46:45;;;;;;;6.95;3.63;;;4.90;85.10;;;;;;5004787;28;20030;-63
2024/01/05 02:49:11;;;;;;;7.28;4.00;;;4.90;84.90;;;;;;5005928;28;20160;-64
2024/01/05 02:51:36;;;;;;;7.53;4.05;;;5.00;84.80;;;;;;5000351;28;20042;-63
2024/01/05 02:54:02;;;;;;;5.50;3.80;;;5.00;84.70;;;;;;5006794;28;20532;-64
2024/01/05 02:56:27;;;;;;;8.45;4.05;;;5.00;84.60;;;;;;5000778;28;20505;-63
2024/01/05 02:58:53;;;;;;;8.02;3.83;;;5.00;84.60;;;;;;5008844;28;20025;-63
2024/01/05 03:01:19;;;;;;;7.38;3.92;;;5.00;84.60;;;;;;5004922;28;20061;-63
2024/01/05 03:03:48;;;;;;;6.28;3.67;;;5.00;84.60;;;;;;5004866;28;20037;-64
2024/01/05 03:06:15;;;;;;;6.32;3.35;;;5.10;84.60;;;;;;5003660;28;20034;-64
2024/01/05 03:08:41;;;;;;;8.93;3.40;;;5.10;84.50;;;;;;5006593;28;20490;-62
2024/01/05 03:11:07;;;;;;;9.82;3.70;;;5.10;84.30;;;;;;5006501;28;20036;-63
2024/01/05 03:13:32;;;;;;;6.10;3.60;;;5.10;84.10;;;;;;5005764;28;20026;-63
2024/01/05 03:15:58;;;;;;;6.93;3.50;;;5.10;84.00;;;;;;5007559;28;20030;-63
2024/01/05 03:18:24;;;;;;;7.28;3.55;;;5.10;83.90;;;;;;5001338;28;20350;-62
2024/01/05 03:20:49;;;;;;;7.70;3.53;;;5.10;83.70;;;;;;5005955;28;20405;-63
2024/01/05 03:23:15;;;;;;;10.20;3.78;;;5.00;83.70;;;;;;5005761;28;20137;-64
2024/01/05 03:25:41;;;;;;;6.80;3.65;;;5.00;83.80;;;;;;5002644;28;20045;-64
2024/01/05 03:28:07;;;;;;;6.13;3.42;;;5.00;84.00;;;;;;5003943;28;20034;-64
2024/01/05 03:30:33;;;;;;;5.65;3.22;;;4.90;84.00;;;;;;5000175;28;20456;-63
2024/01/05 03:32:58;;;;;;;5.47;3.03;;;4.90;84.30;;;;;;5008301;28;20117;-64
2024/01/05 03:35:24;;;;;;;5.15;3.13;;;4.90;84.50;;;;;;5007819;28;20065;-63
2024/01/05 03:37:50;;;;;;;7.10;3.40;;;4.90;84.70;;;;;;5004945;28;20034;-62
2024/01/05 03:40:15;;;;;;;5.63;2.95;;;4.90;85.00;;;;;;5004890;28;20045;-62
2024/01/05 03:42:41;;;;;;;5.85;2.78;;;4.90;85.10;;;;;;5004702;28;20493;-63
2024/01/05 03:45:07;;;;;;;4.55;2.97;;;4.90;85.10;;;;;;5003176;28;20053;-64
2024/01/05 03:47:33;;;;;;;6.85;3.20;;;4.90;85.30;;;;;;5007703;28;20057;-64
2024/01/05 03:49:58;;;;;;;5.32;2.58;;;4.90;85.20;;;;;;5006737;28;20065;-64
2024/01/05 03:52:24;;;;;;;4.97;2.80;;;5.00;85.20;;;;;;5003602;28;20037;-63
2024/01/05 03:54:50;;;;;;;5.55;3.00;;;5.00;85.10;;;;;;5003930;28;20270;-63
2024/01/05 03:57:15;;;;;;;7.38;3.05;;;5.00;84.90;;;;;;4996566;28;20042;-63
2024/01/05 03:59:44;;;;;;;5.88;3.38;;;5.00;85.00;;;;;;5001687;28;20041;-62
2024/01/05 04:02:10;;;;;;;7.57;3.50;;;5.00;85.10;;;;;;5007731;28;20037;-63
2024/01/05 04:04:35;;;;;;;6.78;2.97;;;5.00;85.00;;;;;;5004088;28;20458;-64
2024/01/05 04:07:01;;;;;;;8.65;3.30;;;5.00;84.90;;;;;;5004030;28;20033;-64
2024/01/05 04:09:27;;;;;;;6.20;3.20;;;5.00;85.10;;;;;;5004353;28;20041;-63
2024/01/05 04:11:53;;;;;;;4.72;2.70;;;5.00;85.10;;;;;;5005938;28;20061;-62
2024/01/05 04:14:18;;;;;;;5.72;3.08;;;5.10;85.30;;;;;;5006533;28;20037;-63
2024/01/05 04:16:44;;;;;;;8.48;2.90;;;5.10;86.10;;;;;;5005622;28;20126;-62
2024/01/05 04:19:10;;;;;;;5.70;3.35;;;5.10;85.30;;;;;;5004130;28;20045;-65
2024/01/05 04:21:35;;;;;;;6.10;2.95;;;5.20;85.30;;;;;;5000244;28;20077;-64
2024/01/05 04:24:01;;;;;;;5.63;3.00;;;5.20;85.10;;;;;;5006137;28;20054;-63
2024/01/05 04:26:27;;;;;;;5.03;2.97;;;5.20;85.00;;;;;;5006645;28;20565;-63
2024/01/05 04:28:53;;;;;;;5.90;2.95;;;5.20;85.00;;;;;;5009914;28;20042;-64
2024/01/05 04:31:18;;;;;;;4.95;2.92;;;5.20;85.00;;;;;;5008753;28;20049;-63
2024/01/05 04:33:44;;;;;;;3.92;2.88;;;5.20;85.00;;;;;;5006839;28;20072;-64
2024/01/05 04:36:10;;;;;;;4.47;2.83;;;5.20;85.00;;;;;;5001597;28;20033;-63
2024/01/05 04:38:36;;;;;;;4.63;2.97;;;5.20;84.90;;;;;;5009879;28;20030;-63
2024/01/05 04:41:02;;;;;;;4.22;2.60;;;5.30;85.00;;;;;;5006963;28;20036;-63
2024/01/05 04:43:28;;;;;;;4.03;2.80;;;5.20;85.10;;;;;;5008210;28;20038;-63
2024/01/05 04:45:53;;;;;;;4.10;2.90;;;5.30;85.20;;;;;;5009992;28;20040;-64
2024/01/05 04:48:19;;;;;;;5.78;2.92;;;5.30;86.00;;;;;;5009843;28;20041;-64
2024/01/05 04:50:45;;;;;;;4.93;2.85;;;5.30;85.20;;;;;;5007587;28;20037;-64
2024/01/05 04:53:11;;;;;;;4.47;2.85;;;5.30;85.20;;;;;;5006291;28;20550;-63
2024/01/05 04:55:36;;;;;;;4.28;2.80;;;5.30;85.10;;;;;;5008165;28;20585;-64
2024/01/05 04:58:02;;;;;;;4.40;2.83;;;5.30;85.10;;;;;;5006832;28;20030;-63
2024/01/05 05:00:28;;;;;;;4.13;2.97;;;5.30;85.10;;;;;;5003833;28;20045;-64
2024/01/05 05:02:53;;;;;;;8.10;3.85;;;5.40;84.90;;;;;;5005006;28;20034;-61
2024/01/05 05:05:19;;;;;;;6.32;4.20;;;5.40;84.90;;;;;;5004195;28;20049;-63
2024/01/05 05:07:45;;;;;;;7.28;4.20;;;5.40;84.90;;;;;;5006388;28;20294;-63
2024/01/05 05:10:10;;;;;;;10.27;4.95;;;5.40;84.80;;;;;;5002403;28;20041;-64
2024/01/05 05:12:36;;;;;;;6.78;4.05;;;5.40;84.60;;;;;;4999602;28;20490;-64
2024/01/05 05:15:01;;;;;;;7.22;4.45;;;5.40;84.70;;;;;;5005667;28;20026;-64
2024/01/05 05:17:27;;;;;;;6.88;3.85;;;5.40;84.70;;;;;;4998229;28;20037;-63
2024/01/05 05:19:54;;;;;;;6.57;3.30;;;5.40;84.70;;;;;;5003947;28;20041;-63
2024/01/05 05:22:21;;;;;;;4.63;3.30;;;5.40;84.70;;;;;;5001872;28;20040;-63
2024/01/05 05:24:46;;;;;;;6.05;3.35;;;5.40;84.70;;;;;;5001178;28;20034;-64
2024/01/05 05:27:12;;;;;;;5.55;2.83;;;5.40;84.70;;;;;;5006189;28;20041;-64
2024/01/05 05:29:37;;;;;;;3.35;2.67;;;5.40;84.80;;;;;;4996863;28;20071;-63
2024/01/05 05:32:03;;;;;;;3.65;2.35;;;5.50;84.80;;;;;;5011133;28;20038;-62
2024/01/05 05:34:29;;;;;;;5.00;2.70;;;5.50;84.70;;;;;;4998556;28;20139;-64
2024/01/05 05:36:54;;;;;;;4.72;2.75;;;5.50;84.70;;;;;;5000572;28;20497;-63
2024/01/05 05:39:20;;;;;;;3.70;2.50;;;5.50;84.90;;;;;;5005223;28;20111;-63
2024/01/05 05:41:45;;;;;;;3.47;2.63;;;5.60;84.80;;;;;;4997366;28;20091;-63
2024/01/05 05:44:11;;;;;;;4.63;3.38;;;5.60;84.70;;;;;;5003487;28;20038;-64
2024/01/05 05:46:37;;;;;;;5.13;2.83;;;5.50;84.60;;;;;;5001766;28;20034;-64
2024/01/05 05:49:02;;;;;;;6.50;3.05;;;5.60;84.60;;;;;;5007915;28;20068;-64
2024/01/05 05:51:28;;;;;;;5.68;3.00;;;5.60;84.60;;;;;;5003104;28;20030;-63
2024/01/05 05:53:54;;;;;;;3.75;2.58;;;5.60;84.70;;;;;;5007396;28;20034;-63
2024/01/05 05:56:19;;;;;;;4.07;2.60;;;5.60;84.60;;;;;;5007067;28;20099;-64
2024/01/05 05:58:45;;;;;;;5.00;2.55;;;5.60;84.60;;;;;;5007626;28;20026;-63
2024/01/05 06:01:13;;;;;;;4.68;2.60;;;5.70;84.50;;;;;;4999259;28;20026;-63
2024/01/05 06:03:39;;;;;;;5.43;2.30;;;5.70;84.40;;;;;;5005618;28;20030;-64
2024/01/05 06:06:14;;;;;;;4.25;2.05;;;5.70;84.30;;;;;;5008567;28;20045;-64
2024/01/05 06:08:40;;;;;;;4.82;1.98;;;5.70;84.40;;;;;;5003407;28;20469;-64
2024/01/05 06:11:05;;;;;;;1.98;1.70;;;5.80;84.40;;;;;;4998641;28;20034;-64
2024/01/05 06:13:31;;;;;;;2.53;2.00;;;5.80;85.10;;;;;;4996614;28;20034;-63
2024/01/05 06:15:56;;;;;;;2.40;1.83;;;5.90;84.20;;;;;;5002017;28;20085;-64
2024/01/05 06:18:22;;;;;;;3.80;2.35;;;5.90;84.00;;;;;;5006144;28;20038;-63
2024/01/05 06:20:48;;;;;;;3.85;2.60;;;5.90;83.90;;;;;;4999519;28;20537;-64
2024/01/05 06:23:13;;;;;;;3.47;2.42;;;6.00;84.00;;;;;;5005083;28;20397;-64
2024/01/05 06:25:39;;;;;;;3.78;2.60;;;6.00;83.90;;;;;;5001052;28;20049;-64
2024/01/05 06:28:04;;;;;;;4.13;2.60;;;6.00;84.00;;;;;;5003557;28;20113;-63
2024/01/05 06:30:30;;;;;;;3.75;2.65;;;6.00;83.90;;;;;;5000064;28;20049;-63
2024/01/05 06:32:55;;;;;;;4.53;2.60;;;6.00;83.80;;;;;;5008281;28;20504;-64
2024/01/05 06:35:21;;;;;;;3.10;2.17;;;6.00;83.60;;;;;;5001279;28;20038;-64
2024/01/05 06:37:47;;;;;;;3.20;2.20;;;6.00;83.60;;;;;;5005473;28;20073;-63
2024/01/05 06:40:12;;;;;;;4.20;2.08;;;6.00;83.70;;;;;;5003539;28;20030;-64
2024/01/05 06:42:38;;;;;;;2.63;2.03;;;6.00;83.70;;;;;;5001086;28;20088;-64
2024/01/05 06:45:04;;;;;;;2.28;1.85;;;6.00;83.90;;;;;;4999240;28;20022;-63
2024/01/05 06:47:29;;;;;;;2.92;1.85;;;6.10;83.90;;;;;;5002378;28;20042;-63
2024/01/05 06:49:55;;;;;;;3.53;2.00;;;6.00;84.00;;;;;;4997061;28;20029;-64
2024/01/05 06:52:21;;;;;;;2.97;2.00;;;6.10;84.00;;;;;;5004361;28;20029;-64
2024/01/05 06:54:46;;;;;;;4.30;2.30;;;6.00;84.00;;;;;;5003626;28;20084;-64
2024/01/05 06:57:12;;;;;;;2.40;2.20;;;6.10;84.00;;;;;;5005690;28;20030;-63
2024/01/05 06:59:39;;;;;;;3.35;2.15;;;6.10;83.90;;;;;;5001772;28;20046;-64
2024/01/05 07:02:05;;;;;;;6.18;2.80;;;6.10;83.80;;;;;;4999007;28;20521;-64
2024/01/05 07:04:31;;;;;;;4.07;2.70;;;6.10;83.80;;;;;;5004457;28;20034;-64
2024/01/05 07:06:56;;;;;;;4.18;2.70;;;6.10;83.90;;;;;;5005851;28;20547;-63
2024/01/05 07:09:22;;;;;;;5.28;2.80;;;6.10;83.90;;;;;;5002629;28;20100;-62
2024/01/05 07:11:48;;;;;;;4.43;2.70;;;6.10;83.90;;;;;;4995861;28;20164;-63
2024/01/05 07:14:14;;;;;;;5.72;2.70;;;6.10;83.90;;;;;;5004822;28;20508;-63
2024/01/05 07:16:39;;;;;;;11.82;5.90;;;6.20;84.00;;;;;;5001189;28;20030;-63
2024/01/05 07:19:06;;;;;;;15.60;8.27;;;6.20;83.90;;;;;;4998989;28;20027;-64
2024/01/05 07:21:33;;;;;;;18.25;9.20;;;6.20;83.70;;;;;;4995770;28;20083;-64
2024/01/05 07:23:59;;;;;;;7.20;4.55;;;6.30;83.70;;;;;;5002789;28;20041;-64
2024/01/05 07:26:24;;;;;;;5.63;3.17;;;6.30;83.60;;;;;;4999771;28;20516;-64
2024/01/05 07:28:50;;;;;;;4.32;2.40;;;6.30;83.60;;;;;;4998688;28;20015;-63
2024/01/05 07:31:22;;;;;;;3.88;2.70;;;6.30;83.50;;;;;;5004952;28;20053;-63
2024/01/05 07:33:47;;;;;;;6.18;3.22;;;6.30;83.50;;;;;;4985574;28;20566;-64
2024/01/05 07:36:13;;;;;;;4.10;2.75;;;6.30;83.50;;;;;;4993966;28;20026;-64
2024/01/05 07:38:38;;;;;;;4.47;2.50;;;6.40;83.50;;;;;;4995865;28;20169;-63
2024/01/05 07:41:04;;;;;;;5.57;2.70;;;6.40;83.30;;;;;;4996253;28;20039;-63
2024/01/05 07:43:30;;;;;;;7.97;2.78;;;6.40;83.30;;;;;;4992937;28;20115;-63
2024/01/05 07:45:56;;;;;;;6.32;3.67;;;6.40;83.20;;;;;;4994094;28;20034;-63
2024/01/05 07:48:22;;;;;;;6.82;3.80;;;6.50;83.20;;;;;;4999260;28;20501;-62
2024/01/05 07:50:48;;;;;;;5.30;3.08;;;6.40;83.00;;;;;;4991777;28;20041;-63
2024/01/05 07:53:13;;;;;;;5.35;2.50;;;6.40;83.00;;;;;;5002950;28;20026;-64
2024/01/05 07:55:39;;;;;;;2.97;1.98;;;6.40;83.00;;;;;;4994560;28;20030;-64
2024/01/05 07:58:05;;;;;;;3.33;2.25;;;6.40;83.00;;;;;;4990748;28;20030;-63
2024/01/05 08:00:31;;;;;;;4.38;2.50;;;6.40;83.10;;;;;;4996255;28;20045;-64
2024/01/05 08:02:57;;;;;;;7.13;3.30;;;6.40;83.20;;;;;;5001988;28;20058;-64
2024/01/05 08:05:23;;;;;;;6.53;3.60;;;6.50;83.20;;;;;;4998458;28;20033;-64
2024/01/05 08:07:49;;;;;;;4.07;2.78;;;6.50;83.20;;;;;;4997620;28;20038;-65
2024/01/05 08:10:15;;;;;;;5.20;2.30;;;6.50;83.20;;;;;;4990434;28;20520;-63
2024/01/05 08:12:40;;;;;;;6.22;2.00;;;6.60;83.20;;;;;;4996302;28;20177;-63
2024/01/05 08:15:06;;;;;;;3.35;1.85;;;6.60;83.20;;;;;;4995640;28;20409;-64
2024/01/05 08:17:32;;;;;;;3.60;1.60;;;6.60;84.00;;;;;;4996930;28;20080;-64
2024/01/05 08:19:57;;;;;;;3.53;1.65;;;6.60;83.00;;;;;;4996464;28;20512;-63
2024/01/05 08:22:25;;;;;;;4.03;1.30;;;6.70;83.10;;;;;;5000239;28;20038;-63
2024/01/05 08:24:50;;;;;;;2.85;1.33;;;6.70;82.90;;;;;;4996053;28;20161;-65
2024/01/05 08:27:16;;;;;;;2.13;1.10;;;6.70;82.70;;;;;;4996248;28;20149;-63
2024/01/05 08:29:42;;;;;;;5.00;1.50;;;6.80;82.60;;;;;;4998736;28;20030;-64
2024/01/05 08:32:07;;;;;;;2.65;1.42;;;6.70;82.40;;;;;;4999071;28;20046;-64
2024/01/05 08:34:33;;;;;;;2.42;1.27;;;6.80;82.20;;;;;;4996440;28;20570;-64
2024/01/05 08:36:58;;;;;;;5.07;1.70;;;6.90;82.20;;;;;;4997540;28;20042;-65
2024/01/05 08:39:24;;;;;;;3.50;2.00;;;6.90;81.80;;;;;;4998460;28;20162;-64
2024/01/05 08:41:50;;;;;;;5.15;2.70;;;7.00;82.60;;;;;;4998549;28;20042;-64
2024/01/05 08:44:15;;;;;;;3.85;2.38;;;7.00;81.70;;;;;;4996974;28;20510;-62
2024/01/05 08:46:41;;;;;;;8.15;3.00;;;7.00;81.60;;;;;;5000255;28;20041;-64
2024/01/05 08:49:07;;;;;;;6.30;2.70;;;7.10;81.50;;;;;;5001102;28;20073;-64
2024/01/05 08:51:32;;;;;;;4.55;2.00;;;7.10;82.30;;;;;;4994951;28;20534;-63
2024/01/05 08:54:01;;;;;;;4.63;1.60;;;7.10;81.30;;;;;;5000803;28;20503;-64
2024/01/05 08:56:27;;;;;;;4.22;1.35;;;7.20;81.30;;;;;;5003523;28;20034;-64
2024/01/05 08:58:53;;;;;;;3.28;1.40;;;7.20;81.10;;;;;;4996173;28;20038;-64
2024/01/05 09:01:19;;;;;;;5.65;1.33;;;7.30;81.00;;;;;;4989320;28;20049;-64
2024/01/05 09:03:45;;;;;;;2.85;1.45;;;7.30;81.00;;;;;;4995369;28;20498;-64
2024/01/05 09:06:11;;;;;;;2.45;1.33;;;7.40;80.80;;;;;;5006459;28;20038;-62
2024/01/05 09:08:37;;;;;;;2.83;1.40;;;7.40;80.50;;;;;;5003018;28;20445;-62
2024/01/05 09:11:03;;;;;;;2.22;1.48;;;7.40;80.60;;;;;;4995771;28;20037;-63
2024/01/05 09:13:30;;;;;;;4.43;1.77;;;7.40;80.60;;;;;;5003878;28;20049;-63
2024/01/05 09:15:55;;;;;;;4.88;1.70;;;7.50;80.30;;;;;;5001735;28;20037;-62
2024/01/05 09:18:21;;;;;;;6.72;2.00;;;7.50;80.20;;;;;;5002931;28;20042;-62
2024/01/05 09:20:47;;;;;;;6.25;1.70;;;7.50;80.00;;;;;;4999563;28;20489;-64
2024/01/05 09:23:13;;;;;;;2.55;1.60;;;7.60;80.80;;;;;;5003040;28;20072;-63
2024/01/05 09:25:38;;;;;;;2.35;1.30;;;7.60;79.70;;;;;;5002816;28;20038;-63
2024/01/05 09:28:06;;;;;;;3.47;1.60;;;7.80;79.90;;;;;;5006576;28;20030;-63
2024/01/05 09:30:32;;;;;;;3.00;1.60;;;7.70;80.00;;;;;;5002936;28;20042;-62
2024/01/05 09:32:58;;;;;;;5.22;1.65;;;7.80;80.00;;;;;;5003548;28;20391;-62
2024/01/05 09:35:25;;;;;;;2.67;1.45;;;7.80;79.80;;;;;;5002872;28;20038;-63
2024/01/05 09:37:52;;;;;;;2.85;1.58;;;7.90;79.80;;;;;;5002887;28;20501;-63
2024/01/05 09:40:17;;;;;;;2.90;1.80;;;7.90;79.80;;;;;;5007554;28;20040;-62
2024/01/05 09:42:52;;;;;;;6.68;2.15;;;8.00;79.90;;;;;;5005754;28;20030;-62
2024/01/05 09:45:22;;;;;;;4.15;1.70;;;8.00;79.60;;;;;;5007224;28;20113;-61
2024/01/05 09:47:49;;;;;;;3.58;1.25;;;8.00;79.40;;;;;;5001551;28;20026;-62
2024/01/05 09:50:16;;;;;;;5.30;1.20;;;8.10;79.60;;;;;;5004861;28;20030;-63
2024/01/05 09:52:43;;;;;;;3.25;1.40;;;8.10;79.40;;;;;;5002381;28;20094;-63
2024/01/05 09:55:08;;;;;;;4.05;1.42;;;8.20;79.40;;;;;;5003681;28;20076;-62
2024/01/05 09:57:36;;;;;;;3.90;1.70;;;8.20;79.50;;;;;;4997204;28;20037;-63
2024/01/05 10:00:03;;;;;;;4.07;1.40;;;8.30;79.30;;;;;;5002223;28;20041;-62
2024/01/05 10:02:36;;;;;;;4.45;1.73;;;8.30;79.10;;;;;;5005045;28;20049;-62
2024/01/05 10:05:01;;;;;;;4.72;1.70;;;8.40;78.70;;;;;;4997760;28;20537;-61
2024/01/05 10:07:27;;;;;;;3.85;1.60;;;8.40;78.70;;;;;;4999095;28;21108;-63
2024/01/05 10:09:54;;;;;;;3.10;1.58;;;8.50;78.60;;;;;;4999851;28;20035;-62
2024/01/05 10:12:20;;;;;;;6.53;1.80;;;8.60;78.60;;;;;;5007684;28;20030;-61
2024/01/05 10:14:49;;;;;;;2.90;1.80;;;8.60;78.60;;;;;;5005508;28;20041;-63
2024/01/05 10:17:17;;;;;;;3.13;1.80;;;8.60;78.40;;;;;;5005010;28;20034;-62
2024/01/05 10:19:43;;;;;;;1.73;1.40;;;8.60;78.50;;;;;;5009212;28;20041;-62
2024/01/05 10:22:13;;;;;;;4.75;1.65;;;8.70;78.70;;;;;;5006830;28;20034;-62
2024/01/05 10:24:40;;;;;;;3.40;1.90;;;8.70;78.60;;;;;;5001216;28;20045;-63
2024/01/05 10:27:11;;;;;;;4.38;1.90;;;8.70;78.70;;;;;;5005087;28;20079;-62
2024/01/05 10:29:38;;;;;;;3.70;1.92;;;8.70;78.70;;;;;;5004247;28;20109;-62
2024/01/05 10:32:18;;;;;;;3.45;2.25;;;8.70;78.70;;;;;;5002798;28;20038;-63
2024/01/05 10:34:49;;;;;;;3.78;2.30;;;8.70;78.70;;;;;;5006324;28;20520;-63
2024/01/05 10:37:21;;;;;;;5.45;2.90;;;8.70;78.90;;;;;;5010859;28;20042;-62
2024/01/05 10:39:51;;;;;;;6.25;3.13;;;8.70;79.10;;;;;;5006114;28;20057;-61
2024/01/05 10:42:25;;;;;;;5.50;2.90;;;8.60;79.30;;;;;;5005590;28;20164;-63
2024/01/05 10:44:55;;;;;;;5.05;2.80;;;8.60;79.20;;;;;;5003193;28;20254;-62
2024/01/05 10:47:23;;;;;;;4.45;3.20;;;8.60;79.30;;;;;;5007307;28;20134;-62
2024/01/05 10:49:50;;;;;;;3.70;2.70;;;8.50;79.30;;;;;;5007710;28;20137;-63
2024/01/05 10:52:20;;;;;;;4.63;2.42;;;8.50;79.50;;;;;;5007201;28;20036;-63
2024/01/05 10:54:47;;;;;;;5.43;2.88;;;8.50;79.60;;;;;;5008116;28;20143;-63
2024/01/05 10:57:17;;;;;;;3.92;2.40;;;8.50;79.60;;;;;;5006299;28;20038;-63
2024/01/05 10:59:46;;;;;;;6.30;2.60;;;8.40;80.00;;;;;;5005891;28;20072;-62
2024/01/05 11:02:24;;;;;;;4.47;2.45;;;8.50;80.10;;;;;;5007599;28;20172;-63
2024/01/05 11:05:00;;;;;;;3.45;2.40;;;8.50;80.20;;;;;;5004968;28;20555;-62
2024/01/05 11:07:29;;;;;;;4.75;2.50;;;8.50;80.10;;;;;;4999883;28;20536;-62
2024/01/05 11:10:07;;;;;;;5.78;2.53;;;8.50;80.10;;;;;;5001244;28;20569;-63
2024/01/05 11:12:42;;;;;;;6.55;2.70;;;8.60;80.20;;;;;;5008371;28;20073;-63
2024/01/05 11:15:30;;;;;;;3.60;2.45;;;8.60;80.10;;;;;;5003694;28;20036;-63
2024/01/05 11:18:35;;;;;;;3.83;2.45;;;8.70;80.20;;;;;;5001100;28;20057;-63
2024/01/05 11:21:03;;;;;;;4.18;2.50;;;8.70;80.20;;;;;;4998847;28;20497;-63
2024/01/05 11:23:31;;;;;;;3.70;2.42;;;8.70;80.10;;;;;;5002532;28;20038;-63
2024/01/05 11:25:57;;;;;;;3.70;2.50;;;8.80;80.30;;;;;;4999651;28;20481;-63
2024/01/05 11:28:44;;;;;;;3.85;2.67;;;8.80;80.30;;;;;;5009902;28;20057;-63
2024/01/05 11:31:10;;;;;;;5.85;3.50;;;8.90;80.30;;;;;;5001745;28;20437;-63
2024/01/05 11:33:42;;;;;;;7.97;5.00;;;8.90;80.20;;;;;;5002672;28;20113;-63
2024/01/05 11:36:07;;;;;;;9.40;5.15;;;8.90;80.10;;;;;;5002511;28;20524;-63
2024/01/05 11:38:33;;;;;;;6.80;5.10;;;9.00;80.00;;;;;;4999839;28;20034;-64
2024/01/05 11:40:59;;;;;;;7.15;5.18;;;9.00;79.90;;;;;;5003574;28;20060;-63
2024/01/05 11:43:28;;;;;;;6.90;4.18;;;9.00;79.70;;;;;;5002795;28;20054;-63
2024/01/05 11:45:54;;;;;;;6.10;3.05;;;9.00;79.60;;;;;;5003547;28;20027;-62
2024/01/05 11:48:34;;;;;;;4.15;2.20;;;9.00;79.60;;;;;;5001483;28;20367;-63
2024/01/05 11:51:06;;;;;;;5.75;2.58;;;9.00;79.30;;;;;;5001536;28;20557;-63
2024/01/05 11:53:32;;;;;;;5.03;2.05;;;9.00;79.30;;;;;;5001175;28;20501;-63
2024/01/05 11:55:59;;;;;;;4.72;3.10;;;9.00;79.30;;;;;;5006310;28;20036;-63
2024/01/05 11:58:27;;;;;;;4.50;2.53;;;9.00;79.10;;;;;;5005667;28;20065;-63
2024/01/05 12:00:56;;;;;;;3.58;2.25;;;9.00;79.10;;;;;;5005819;28;20045;-63
2024/01/05 12:03:24;;;;;;;7.32;3.90;;;9.00;79.00;;;;;;5007286;28;20034;-63
2024/01/05 12:06:00;;;;;;;9.23;3.92;;;9.00;78.90;;;;;;5005909;28;20074;-63
2024/01/05 12:08:27;;;;;;;6.10;3.20;;;9.00;78.60;;;;;;5004457;28;20030;-63
2024/01/05 12:10:58;;;;;;;4.47;2.30;;;9.10;78.30;;;;;;5005032;28;20490;-63
2024/01/05 12:13:26;;;;;;;3.88;1.80;;;9.10;78.20;;;;;;5002744;28;20042;-63
2024/01/05 12:15:55;;;;;;;3.08;1.83;;;9.10;78.00;;;;;;5002790;28;20031;-63
2024/01/05 12:18:26;;;;;;;4.72;2.00;;;9.10;77.80;;;;;;5007367;28;20034;-63
2024/01/05 12:21:00;;;;;;;3.47;1.60;;;9.20;77.70;;;;;;5003542;28;20069;-63
2024/01/05 12:23:27;;;;;;;3.70;1.80;;;9.20;77.50;;;;;;5003013;28;20030;-62
2024/01/05 12:26:04;;;;;;;5.05;2.17;;;9.20;77.40;;;;;;5003340;28;20034;-62
2024/01/05 12:28:40;;;;;;;3.20;1.70;;;9.30;77.00;;;;;;5002688;28;20571;-63
2024/01/05 12:31:10;;;;;;;4.68;1.63;;;9.30;76.60;;;;;;5002854;28;20393;-63
2024/01/05 12:33:37;;;;;;;3.42;1.95;;;9.40;76.80;;;;;;5002303;28;20038;-63
2024/01/05 12:36:12;;;;;;;4.43;1.67;;;9.40;76.60;;;;;;5005292;28;20105;-63
2024/01/05 12:38:38;;;;;;;2.03;1.45;;;9.40;76.50;;;;;;5004996;28;20041;-63
2024/01/05 12:41:08;;;;;;;3.95;1.80;;;9.50;76.50;;;;;;5003733;28;20034;-63
2024/01/05 12:43:52;;;;;;;3.50;2.80;;;9.50;76.30;;;;;;5006245;28;20037;-63
2024/01/05 12:46:19;;;;;;;4.30;2.30;;;9.50;77.00;;;;;;5007284;28;20146;-63
2024/01/05 12:48:45;;;;;;;6.53;2.95;;;9.50;77.20;;;;;;5009709;28;20033;-62
2024/01/05 12:51:19;;;;;;;6.03;3.33;;;9.50;77.30;;;;;;5007576;28;20441;-63
2024/01/05 12:53:49;;;;;;;9.77;3.80;;;9.50;77.40;;;;;;5009882;28;20349;-63
2024/01/05 12:56:17;;;;;;;9.02;4.30;;;9.50;77.60;;;;;;5010165;28;20044;-62